createdAt,value
2023-10-17T00:02:27.419Z,3.70
2023-10-17T00:04:56.112Z,3.70
2023-10-17T00:07:24.603Z,3.60
2023-10-17T00:09:56.483Z,3.60
2023-10-17T00:12:40.519Z,3.50
2023-10-17T00:15:19.110Z,3.40
2023-10-17T00:17:47.502Z,3.30
2023-10-17T00:20:19.134Z,3.20
2023-10-17T00:22:47.992Z,3.10
2023-10-17T00:25:19.261Z,3.00
2023-10-17T00:27:49.282Z,2.90
2023-10-17T00:30:23.277Z,2.90
2023-10-17T00:32:52.912Z,2.80
2023-10-17T00:35:21.681Z,2.80
2023-10-17T00:37:55.385Z,2.80
2023-10-17T00:40:45.861Z,2.80
2023-10-17T00:43:14.401Z,2.80
2023-10-17T00:45:47.570Z,2.80
2023-10-17T00:48:23.938Z,2.90
2023-10-17T00:50:59.136Z,3.00
2023-10-17T00:53:28.631Z,3.00
2023-10-17T00:55:58.556Z,3.10
2023-10-17T00:58:30.992Z,3.10
2023-10-17T01:01:10.667Z,3.10
2023-10-17T01:03:44.266Z,3.10
2023-10-17T01:06:25.275Z,3.00
2023-10-17T01:08:59.122Z,3.00
2023-10-17T01:11:29.999Z,3.00
2023-10-17T01:14:01.975Z,2.90
2023-10-17T01:16:32.788Z,2.80
2023-10-17T01:19:05.623Z,2.80
2023-10-17T01:21:34.033Z,2.70
2023-10-17T01:24:10.715Z,2.60
2023-10-17T01:26:40.282Z,2.50
2023-10-17T01:29:12.446Z,2.50
2023-10-17T01:31:43.548Z,2.60
2023-10-17T01:34:14.254Z,2.60
2023-10-17T01:36:43.641Z,2.60
2023-10-17T01:39:14.358Z,2.60
2023-10-17T01:41:47.705Z,2.70
2023-10-17T01:44:18.396Z,2.70
2023-10-17T01:46:46.847Z,2.70
2023-10-17T01:49:15.109Z,2.70
2023-10-17T01:51:48.801Z,2.70
2023-10-17T01:54:18.844Z,2.70
2023-10-17T01:56:49.721Z,2.80
2023-10-17T01:59:27.237Z,2.80
2023-10-17T02:01:58.598Z,2.90
2023-10-17T02:04:27.317Z,2.90
2023-10-17T02:06:56.215Z,3.00
2023-10-17T02:09:46.169Z,3.10
2023-10-17T02:12:18.039Z,3.20
2023-10-17T02:14:46.957Z,3.20
2023-10-17T02:17:16.649Z,3.30
2023-10-17T02:19:45.997Z,3.30
2023-10-17T02:22:17.776Z,3.40
2023-10-17T02:24:48.048Z,3.40
2023-10-17T02:27:22.516Z,3.40
2023-10-17T02:29:54.724Z,3.40
2023-10-17T02:32:24.365Z,3.50
2023-10-17T02:34:55.751Z,3.50
2023-10-17T02:37:31.212Z,3.50
2023-10-17T02:40:10.514Z,3.50
2023-10-17T02:42:39.428Z,3.50
2023-10-17T02:45:13.235Z,3.60
2023-10-17T02:47:45.093Z,3.60
2023-10-17T02:50:43.167Z,3.60
2023-10-17T02:53:14.682Z,3.60
2023-10-17T02:55:46.822Z,3.70
2023-10-17T02:58:15.384Z,3.70
2023-10-17T03:00:48.598Z,3.80
2023-10-17T03:03:21.186Z,3.80
2023-10-17T03:05:52.170Z,3.80
2023-10-17T03:08:21.033Z,3.90
2023-10-17T03:10:57.374Z,3.90
2023-10-17T03:13:26.301Z,3.90
2023-10-17T03:15:58.193Z,3.90
2023-10-17T03:18:27.769Z,4.00
2023-10-17T03:20:57.672Z,4.00
2023-10-17T03:23:29.447Z,4.00
2023-10-17T03:26:02.377Z,4.10
2023-10-17T03:28:34.621Z,4.00
2023-10-17T03:31:12.331Z,4.00
2023-10-17T03:33:44.086Z,4.00
2023-10-17T03:36:30.619Z,4.00
2023-10-17T03:39:18.894Z,4.00
2023-10-17T03:41:49.653Z,3.90
2023-10-17T03:44:19.581Z,4.00
2023-10-17T03:46:49.976Z,4.00
2023-10-17T03:49:19.776Z,4.00
2023-10-17T03:51:54.333Z,4.00
2023-10-17T03:54:27.027Z,4.00
2023-10-17T03:57:03.889Z,4.00
2023-10-17T03:59:39.744Z,4.10
2023-10-17T04:02:13.210Z,4.10
2023-10-17T04:04:51.462Z,4.10
2023-10-17T04:07:22.901Z,4.00
2023-10-17T04:10:20.633Z,4.00
2023-10-17T04:13:14.431Z,4.00
2023-10-17T04:15:44.565Z,4.10
2023-10-17T04:18:13.537Z,4.20
2023-10-17T04:20:45.144Z,4.20
2023-10-17T04:23:27.849Z,4.20
2023-10-17T04:25:57.424Z,4.30
2023-10-17T04:28:28.897Z,4.40
2023-10-17T04:30:58.884Z,4.40
2023-10-17T04:33:31.397Z,4.50
2023-10-17T04:36:04.931Z,4.50
2023-10-17T04:38:39.680Z,4.50
2023-10-17T04:41:15.111Z,4.50
2023-10-17T04:43:55.732Z,4.50
2023-10-17T04:46:27.771Z,4.50
2023-10-17T04:49:07.136Z,4.60
2023-10-17T04:51:39.664Z,4.70
2023-10-17T04:54:24.285Z,4.80
2023-10-17T04:57:01.100Z,4.90
2023-10-17T04:59:52.634Z,5.00
2023-10-17T05:02:49.580Z,4.90
2023-10-17T05:05:36.296Z,4.90
2023-10-17T05:08:33.445Z,4.90
2023-10-17T05:11:20.664Z,4.90
2023-10-17T05:14:07.219Z,4.80
2023-10-17T05:16:54.732Z,4.70
2023-10-17T05:19:40.497Z,4.60
2023-10-17T05:22:26.309Z,4.60
2023-10-17T05:25:13.080Z,4.50
2023-10-17T05:28:13.443Z,4.40
2023-10-17T05:30:59.305Z,4.40
2023-10-17T05:33:46.746Z,4.30
2023-10-17T05:36:34.115Z,4.30
2023-10-17T05:39:20.311Z,4.30
2023-10-17T05:42:06.262Z,4.30
2023-10-17T05:44:52.333Z,4.20
2023-10-17T05:47:37.938Z,4.20
2023-10-17T05:50:26.599Z,4.20
2023-10-17T05:53:08.749Z,4.20
2023-10-17T05:55:55.263Z,4.30
2023-10-17T05:58:41.510Z,4.40
2023-10-17T06:01:27.330Z,4.50
2023-10-17T06:04:25.299Z,4.40
2023-10-17T06:07:12.852Z,4.40
2023-10-17T06:09:58.928Z,4.40
2023-10-17T06:12:45.767Z,4.30
2023-10-17T06:15:31.710Z,4.30
2023-10-17T06:18:00.515Z,4.30
2023-10-17T06:20:43.217Z,4.30
2023-10-17T06:23:27.813Z,4.30
2023-10-17T06:26:29.065Z,4.30
2023-10-17T06:29:25.131Z,4.30
2023-10-17T06:31:58.613Z,4.40
2023-10-17T06:34:30.236Z,4.40
2023-10-17T06:37:00.809Z,4.40
2023-10-17T06:39:39.106Z,4.40
2023-10-17T06:42:15.975Z,4.50
2023-10-17T06:44:55.142Z,4.50
2023-10-17T06:47:31.629Z,4.50
2023-10-17T06:50:19.929Z,4.60
2023-10-17T06:53:06.809Z,4.60
2023-10-17T06:55:44.440Z,4.70
2023-10-17T06:58:15.710Z,4.70
2023-10-17T07:00:51.386Z,4.80
2023-10-17T07:03:27.595Z,4.90
2023-10-17T07:06:05.516Z,5.00
2023-10-17T07:08:38.906Z,5.00
2023-10-17T07:11:26.384Z,5.10
2023-10-17T07:14:00.849Z,5.20
2023-10-17T07:16:34.763Z,5.30
2023-10-17T07:19:35.116Z,5.40
2023-10-17T07:22:12.751Z,5.50
2023-10-17T07:24:46.046Z,5.50
2023-10-17T07:27:28.666Z,5.70
2023-10-17T07:30:03.481Z,5.70
2023-10-17T07:32:46.456Z,5.80
2023-10-17T07:35:25.796Z,5.90
2023-10-17T07:37:58.304Z,5.90
2023-10-17T07:40:35.103Z,6.00
2023-10-17T07:43:06.588Z,6.00
2023-10-17T07:45:40.094Z,6.20
2023-10-17T07:48:23.172Z,6.20
2023-10-17T07:50:56.074Z,6.30
2023-10-17T07:53:24.591Z,6.30
2023-10-17T07:56:04.346Z,6.50
2023-10-17T07:58:48.050Z,6.60
2023-10-17T08:01:19.372Z,6.70
2023-10-17T08:03:56.436Z,6.80
2023-10-17T08:06:30.758Z,6.80
2023-10-17T08:09:01.060Z,7.00
2023-10-17T08:11:31.828Z,7.00
2023-10-17T08:14:11.003Z,7.10
2023-10-17T08:16:42.588Z,7.20
2023-10-17T08:19:17.982Z,7.30
2023-10-17T08:21:50.656Z,7.30
2023-10-17T08:24:28.094Z,7.30
2023-10-17T08:27:11.224Z,7.50
2023-10-17T08:29:44.263Z,7.50
2023-10-17T08:32:30.276Z,7.60
2023-10-17T08:35:09.075Z,7.60
2023-10-17T08:37:44.735Z,7.80
2023-10-17T08:40:41.812Z,7.80
2023-10-17T08:43:16.163Z,7.80
2023-10-17T08:45:49.544Z,7.80
2023-10-17T08:48:21.556Z,7.90
2023-10-17T08:50:50.453Z,8.10
2023-10-17T08:53:22.902Z,8.10
2023-10-17T08:55:53.623Z,8.20
2023-10-17T08:58:26.626Z,8.20
2023-10-17T09:01:08.821Z,8.30
2023-10-17T09:03:45.306Z,8.40
2023-10-17T09:06:39.035Z,8.50
2023-10-17T09:09:24.109Z,8.60
2023-10-17T09:12:11.598Z,8.60
2023-10-17T09:14:45.569Z,8.50
2023-10-17T09:17:19.506Z,8.60
2023-10-17T09:19:52.352Z,8.60
2023-10-17T09:22:41.942Z,8.70
2023-10-17T09:25:20.611Z,8.80
2023-10-17T09:27:54.026Z,8.90
2023-10-17T09:30:25.266Z,8.90
2023-10-17T09:32:56.535Z,8.90
2023-10-17T09:35:25.924Z,9.10
2023-10-17T09:37:57.773Z,9.10
2023-10-17T09:40:29.032Z,9.20
2023-10-17T09:43:00.206Z,9.20
2023-10-17T09:45:35.822Z,9.30
2023-10-17T09:48:09.302Z,9.30
2023-10-17T09:50:40.038Z,9.30
2023-10-17T09:53:18.296Z,9.40
2023-10-17T09:55:50.475Z,9.40
2023-10-17T09:58:33.265Z,9.40
2023-10-17T10:01:06.980Z,9.50
2023-10-17T10:03:40.906Z,9.60
2023-10-17T10:06:24.438Z,9.70
2023-10-17T10:09:00.757Z,9.90
2023-10-17T10:11:59.643Z,10.00
2023-10-17T10:14:45.293Z,10.10
2023-10-17T10:17:16.353Z,10.10
2023-10-17T10:20:03.441Z,10.20
2023-10-17T10:22:55.496Z,10.30
2023-10-17T10:25:24.210Z,10.40
2023-10-17T10:28:25.408Z,10.50
2023-10-17T10:30:54.042Z,10.60
2023-10-17T10:33:29.559Z,10.70
2023-10-17T10:35:59.779Z,10.80
2023-10-17T10:38:42.318Z,11.00
2023-10-17T10:41:14.940Z,11.10
2023-10-17T10:43:48.230Z,11.20
2023-10-17T10:46:21.159Z,11.40
2023-10-17T10:48:52.757Z,11.60
2023-10-17T10:51:25.966Z,11.90
2023-10-17T10:53:57.468Z,12.00
2023-10-17T10:56:27.491Z,12.20
2023-10-17T10:58:57.993Z,12.40
2023-10-17T11:01:29.092Z,12.50
2023-10-17T11:03:59.837Z,12.60
2023-10-17T11:06:29.836Z,12.80
2023-10-17T11:08:58.500Z,12.80
2023-10-17T11:11:26.981Z,13.00
2023-10-17T11:13:57.704Z,13.10
2023-10-17T11:16:27.774Z,13.30
2023-10-17T11:18:57.120Z,13.50
2023-10-17T11:21:26.878Z,13.50
2023-10-17T11:24:01.828Z,13.50
2023-10-17T11:26:31.903Z,13.50
2023-10-17T11:29:04.142Z,13.60
2023-10-17T11:31:33.732Z,13.70
2023-10-17T11:34:05.954Z,13.70
2023-10-17T11:36:46.838Z,13.70
2023-10-17T11:39:17.736Z,13.60
2023-10-17T11:41:49.910Z,13.50
2023-10-17T11:44:24.598Z,13.50
2023-10-17T11:47:00.372Z,13.50
2023-10-17T11:49:33.813Z,13.50
2023-10-17T11:52:05.337Z,13.40
2023-10-17T11:54:55.112Z,13.40
2023-10-17T11:57:24.745Z,13.30
2023-10-17T11:59:57.830Z,13.30
2023-10-17T12:02:26.796Z,13.40
2023-10-17T12:04:55.786Z,13.40
2023-10-17T12:07:24.621Z,13.40
2023-10-17T12:09:55.318Z,13.40
2023-10-17T12:12:24.912Z,13.30
2023-10-17T12:14:54.593Z,13.40
2023-10-17T12:17:25.095Z,13.40
2023-10-17T12:19:53.618Z,13.40
2023-10-17T12:22:24.311Z,13.50
2023-10-17T12:24:54.113Z,13.60
2023-10-17T12:27:22.720Z,13.90
2023-10-17T12:29:51.236Z,14.00
2023-10-17T12:32:23.058Z,14.30
2023-10-17T12:34:55.595Z,14.50
2023-10-17T12:37:24.044Z,14.70
2023-10-17T12:39:54.560Z,14.80
2023-10-17T12:42:23.328Z,14.80
2023-10-17T12:44:52.963Z,15.10
2023-10-17T12:47:22.078Z,15.30
2023-10-17T12:49:50.662Z,15.70
2023-10-17T12:52:19.315Z,16.10
2023-10-17T12:54:47.703Z,16.50
2023-10-17T12:57:17.526Z,16.90
2023-10-17T12:59:46.211Z,17.00
2023-10-17T13:02:14.772Z,17.10
2023-10-17T13:04:45.265Z,17.20
2023-10-17T13:07:15.197Z,17.20
2023-10-17T13:09:44.084Z,17.40
2023-10-17T13:12:15.392Z,17.50
2023-10-17T13:14:45.518Z,17.60
2023-10-17T13:17:15.076Z,17.80
2023-10-17T13:19:44.967Z,17.80
2023-10-17T13:22:18.799Z,17.90
2023-10-17T13:24:51.810Z,17.90
2023-10-17T13:27:22.542Z,17.80
2023-10-17T13:29:57.098Z,17.90
2023-10-17T13:32:26.060Z,17.60
2023-10-17T13:34:54.556Z,17.40
2023-10-17T13:37:36.416Z,17.10
2023-10-17T13:40:06.082Z,16.80
2023-10-17T13:42:36.671Z,16.50
2023-10-17T13:45:11.806Z,16.10
2023-10-17T13:47:41.648Z,15.70
2023-10-17T13:50:14.450Z,15.50
2023-10-17T13:52:43.660Z,15.30
2023-10-17T13:55:15.514Z,15.10
2023-10-17T13:57:48.993Z,14.90
2023-10-17T14:00:21.055Z,14.80
2023-10-17T14:02:51.218Z,14.60
2023-10-17T14:05:21.452Z,14.40
2023-10-17T14:07:52.862Z,14.30
2023-10-17T14:10:25.972Z,14.30
2023-10-17T14:12:54.831Z,14.20
2023-10-17T14:15:25.931Z,14.10
2023-10-17T14:17:55.205Z,14.00
2023-10-17T14:20:39.977Z,14.00
2023-10-17T14:23:13.241Z,13.90
2023-10-17T14:26:10.927Z,13.80
2023-10-17T14:28:38.809Z,13.80
2023-10-17T14:31:11.172Z,13.70
2023-10-17T14:33:41.106Z,13.60
2023-10-17T14:36:10.831Z,13.50
2023-10-17T14:38:40.490Z,13.50
2023-10-17T14:41:13.178Z,13.50
2023-10-17T14:43:45.616Z,13.40
2023-10-17T14:46:15.902Z,13.40
2023-10-17T14:48:45.896Z,13.40
2023-10-17T14:51:15.224Z,13.30
2023-10-17T14:53:51.729Z,13.30
2023-10-17T14:56:22.186Z,13.20
2023-10-17T14:58:54.374Z,13.20
2023-10-17T15:01:24.459Z,13.10
2023-10-17T15:03:55.401Z,13.10
2023-10-17T15:06:25.312Z,13.00
2023-10-17T15:08:54.835Z,13.00
2023-10-17T15:11:24.268Z,12.90
2023-10-17T15:13:54.106Z,13.00
2023-10-17T15:16:26.897Z,13.00
2023-10-17T15:18:55.177Z,13.00
2023-10-17T15:21:23.885Z,13.00
2023-10-17T15:23:53.707Z,13.00
2023-10-17T15:26:26.986Z,13.00
2023-10-17T15:28:57.505Z,13.00
2023-10-17T15:31:29.490Z,13.00
2023-10-17T15:34:01.569Z,12.90
2023-10-17T15:36:31.086Z,12.80
2023-10-17T15:39:02.052Z,12.90
2023-10-17T15:41:30.573Z,12.80
2023-10-17T15:43:59.972Z,12.80
2023-10-17T15:46:30.133Z,12.70
2023-10-17T15:48:59.076Z,12.60
2023-10-17T15:51:27.993Z,12.50
2023-10-17T15:53:57.481Z,12.50
2023-10-17T15:56:29.833Z,12.40
2023-10-17T15:58:59.145Z,12.40
2023-10-17T16:01:27.552Z,12.30
2023-10-17T16:03:58.341Z,12.20
2023-10-17T16:06:28.266Z,12.20
2023-10-17T16:08:58.341Z,12.20
2023-10-17T16:11:26.810Z,12.10
2023-10-17T16:13:55.738Z,12.10
2023-10-17T16:16:25.807Z,12.00
2023-10-17T16:18:54.558Z,11.90
2023-10-17T16:21:25.580Z,11.80
2023-10-17T16:23:55.207Z,11.70
2023-10-17T16:26:24.450Z,11.60
2023-10-17T16:28:52.848Z,11.50
2023-10-17T16:31:21.895Z,11.30
2023-10-17T16:33:50.842Z,11.10
2023-10-17T16:36:20.311Z,10.90
2023-10-17T16:38:50.685Z,10.60
2023-10-17T16:41:19.100Z,10.40
2023-10-17T16:43:49.639Z,10.00
2023-10-17T16:46:21.853Z,9.70
2023-10-17T16:48:50.673Z,9.70
2023-10-17T16:51:21.000Z,9.30
2023-10-17T16:53:51.036Z,9.10
2023-10-17T16:56:19.672Z,8.90
2023-10-17T16:58:49.342Z,8.80
2023-10-17T17:01:19.219Z,8.70
2023-10-17T17:03:47.457Z,8.50
2023-10-17T17:06:17.715Z,8.40
2023-10-17T17:08:46.141Z,8.40
2023-10-17T17:11:16.658Z,8.30
2023-10-17T17:13:44.814Z,8.30
2023-10-17T17:16:14.757Z,8.30
2023-10-17T17:18:48.193Z,8.20
2023-10-17T17:21:18.166Z,8.10
2023-10-17T17:23:49.736Z,8.20
2023-10-17T17:26:21.556Z,8.20
2023-10-17T17:28:50.052Z,8.30
2023-10-17T17:31:19.040Z,8.40
2023-10-17T17:33:48.214Z,8.50
2023-10-17T17:36:18.359Z,8.60
2023-10-17T17:38:47.102Z,8.70
2023-10-17T17:41:18.143Z,8.80
2023-10-17T17:43:48.658Z,8.80
2023-10-17T17:46:17.571Z,8.70
2023-10-17T17:48:48.692Z,8.60
2023-10-17T17:51:17.969Z,8.50
2023-10-17T17:53:49.175Z,8.40
2023-10-17T17:56:18.720Z,8.30
2023-10-17T17:58:52.560Z,8.30
2023-10-17T18:01:21.831Z,8.10
2023-10-17T18:03:51.514Z,8.20
2023-10-17T18:06:20.387Z,8.20
2023-10-17T18:08:49.738Z,8.20
2023-10-17T18:11:20.923Z,8.20
2023-10-17T18:13:52.422Z,8.20
2023-10-17T18:16:20.911Z,8.20
2023-10-17T18:18:49.794Z,8.20
2023-10-17T18:21:18.517Z,8.30
2023-10-17T18:23:48.611Z,8.30
2023-10-17T18:26:19.055Z,8.30
2023-10-17T18:28:50.148Z,8.30
2023-10-17T18:31:20.717Z,8.30
2023-10-17T18:33:50.951Z,8.40
2023-10-17T18:36:20.337Z,8.40
2023-10-17T18:38:49.176Z,8.40
2023-10-17T18:41:18.504Z,8.40
2023-10-17T18:43:47.452Z,8.40
2023-10-17T18:46:20.768Z,8.30
2023-10-17T18:48:51.647Z,8.20
2023-10-17T18:51:21.097Z,8.20
2023-10-17T18:53:52.847Z,8.30
2023-10-17T18:56:24.667Z,8.30
2023-10-17T18:58:53.819Z,8.20
2023-10-17T19:01:22.547Z,8.30
2023-10-17T19:03:54.645Z,8.30
2023-10-17T19:06:23.848Z,8.30
2023-10-17T19:08:52.790Z,8.40
2023-10-17T19:11:22.601Z,8.30
2023-10-17T19:13:52.832Z,8.30
2023-10-17T19:16:23.871Z,8.10
2023-10-17T19:18:53.983Z,7.90
2023-10-17T19:21:23.341Z,7.70
2023-10-17T19:23:51.897Z,7.60
2023-10-17T19:26:22.593Z,7.50
2023-10-17T19:28:52.413Z,7.40
2023-10-17T19:31:23.379Z,7.40
2023-10-17T19:33:54.931Z,7.30
2023-10-17T19:36:23.895Z,7.30
2023-10-17T19:38:53.737Z,7.20
2023-10-17T19:41:22.236Z,7.10
2023-10-17T19:43:51.323Z,7.00
2023-10-17T19:46:21.393Z,7.00
2023-10-17T19:48:51.418Z,6.90
2023-10-17T19:51:21.683Z,6.80
2023-10-17T19:53:55.195Z,6.80
2023-10-17T19:56:24.521Z,6.70
2023-10-17T19:58:53.825Z,6.70
2023-10-17T20:01:24.953Z,6.60
2023-10-17T20:03:55.041Z,6.60
2023-10-17T20:06:26.634Z,6.50
2023-10-17T20:08:57.792Z,6.50
2023-10-17T20:11:27.532Z,6.40
2023-10-17T20:13:58.505Z,6.30
2023-10-17T20:16:29.194Z,6.20
2023-10-17T20:18:58.473Z,6.10
2023-10-17T20:21:30.765Z,6.10
2023-10-17T20:23:59.417Z,5.90
2023-10-17T20:26:28.705Z,5.80
2023-10-17T20:28:58.057Z,5.80
2023-10-17T20:31:28.507Z,5.60
2023-10-17T20:33:58.520Z,5.50
2023-10-17T20:36:28.615Z,5.40
2023-10-17T20:38:58.745Z,5.30
2023-10-17T20:41:29.452Z,5.20
2023-10-17T20:43:58.010Z,5.20
2023-10-17T20:46:32.305Z,5.20
2023-10-17T20:49:04.110Z,5.20
2023-10-17T20:51:34.215Z,5.20
2023-10-17T20:54:04.976Z,5.20
2023-10-17T20:56:41.708Z,5.20
2023-10-17T20:59:11.056Z,5.00
2023-10-17T21:01:40.134Z,5.00
2023-10-17T21:04:10.427Z,5.00
2023-10-17T21:06:41.054Z,4.90
2023-10-17T21:09:10.839Z,4.80
2023-10-17T21:11:40.527Z,4.70
2023-10-17T21:14:11.255Z,4.70
2023-10-17T21:16:42.034Z,4.60
2023-10-17T21:19:11.986Z,4.60
2023-10-17T21:21:43.520Z,4.50
2023-10-17T21:24:12.343Z,4.50
2023-10-17T21:26:44.387Z,4.50
2023-10-17T21:29:14.515Z,4.40
2023-10-17T21:31:46.056Z,4.40
2023-10-17T21:34:17.212Z,4.40
2023-10-17T21:36:47.357Z,4.30
2023-10-17T21:39:18.085Z,4.30
2023-10-17T21:41:46.792Z,4.30
2023-10-17T21:44:15.479Z,4.20
2023-10-17T21:46:45.895Z,4.20
2023-10-17T21:49:14.841Z,4.20
2023-10-17T21:51:43.913Z,4.20
2023-10-17T21:54:14.488Z,4.20
2023-10-17T21:56:43.993Z,4.20
2023-10-17T21:59:15.378Z,4.20
2023-10-17T22:01:44.872Z,4.10
2023-10-17T22:04:16.802Z,4.10
2023-10-17T22:06:45.719Z,4.00
2023-10-17T22:09:16.881Z,4.00
2023-10-17T22:11:45.795Z,3.90
2023-10-17T22:14:15.262Z,3.90
2023-10-17T22:16:44.374Z,3.80
2023-10-17T22:19:16.490Z,3.80
2023-10-17T22:21:46.210Z,3.90
2023-10-17T22:24:17.012Z,3.90
2023-10-17T22:26:46.566Z,3.90
2023-10-17T22:29:15.545Z,3.90
2023-10-17T22:31:45.177Z,3.90
2023-10-17T22:34:14.793Z,3.90
2023-10-17T22:36:43.328Z,3.90
2023-10-17T22:39:12.952Z,3.90
2023-10-17T22:41:46.372Z,3.90
2023-10-17T22:44:17.433Z,3.90
2023-10-17T22:46:47.506Z,4.00
2023-10-17T22:49:16.257Z,3.90
2023-10-17T22:51:44.998Z,3.80
2023-10-17T22:54:13.752Z,3.80
2023-10-17T22:56:43.851Z,3.80
2023-10-17T22:59:12.385Z,3.70
2023-10-17T23:01:43.564Z,3.70
2023-10-17T23:04:13.087Z,3.60
2023-10-17T23:06:42.103Z,3.70
2023-10-17T23:09:10.963Z,3.60
2023-10-17T23:11:42.203Z,3.60
2023-10-17T23:14:13.705Z,3.60
2023-10-17T23:16:43.162Z,3.60
2023-10-17T23:19:14.054Z,3.60
2023-10-17T23:21:43.687Z,3.60
2023-10-17T23:24:16.178Z,3.60
2023-10-17T23:26:45.152Z,3.70
2023-10-17T23:29:15.306Z,3.70
2023-10-17T23:31:44.061Z,3.70
2023-10-17T23:34:16.242Z,3.70
2023-10-17T23:36:45.080Z,3.70
2023-10-17T23:39:14.194Z,3.70
2023-10-17T23:41:45.297Z,3.70
2023-10-17T23:44:15.681Z,3.80
2023-10-17T23:46:44.012Z,3.80
2023-10-17T23:49:14.358Z,3.80
2023-10-17T23:51:44.035Z,3.80
2023-10-17T23:54:16.812Z,3.80
2023-10-17T23:56:47.471Z,3.80
2023-10-17T23:59:17.753Z,3.80
